Dennis Mills, Louisiana
Current Conditions -  °F | °C
As of 6:53 AM on Saturday 20 Dec 2014 (Local Time) from KBTR Reporting Station
Overcast Overcast  
Wind Chill: 46°   Ceiling: 800
Heat Index: 48°   Visibility: 10mi
Dew Point: 45°   Wind: 5mph
Humidity: 89%   Direction: 30°NNE
Pressure: 30.14"   Gusts: NA
Location:  30.421°N, 90.9008°W
Report Text: KBTR 201253Z 03004KT 10SM OVC008 09/07 A3014 RMK AO2 SLP206 T00890072
Loading
Personal Weather Stations






























Interactive Weather Map New forecast layout! Learn more

10-Day Weather Forecast

Advertisements
Track Severe Weather on mobile